Latest Weather Observations for Yulara

IDD60801

Issued at 2:01 am CST Thursday 23 November 2017 (issued every 30 minutes, with the page automatically refreshed every 10 minutes)

About weather observations | Map of weather stations | Latest weather observations for NT | Other Formats
Station Details ID: 015635 Name: YULARA AIRPORT Lat: -25.19 Lon: 130.97 Height: 492.0 m
Data from the previous 72 hours. | See also: Recent months at Yulara
Date/Time
CST
Temp
°C
App
Temp
°C
Dew
Point
°C
Rel
Hum
%
Delta-T
°C
Wind Press
QNH
hPa
Press
MSL
hPa
Rain since
9am
mm
Dir  Spd
km/h
Gust
km/h
Spd
kts
Gust
kts
23/02:00am 24.0 21.0 12.6 49 6.7 SSE 20 32 11 17 1010.6 1007.4 0.0
23/01:30am 24.6 21.7 12.9 48 6.9 SSE 20 35 11 19 1010.7 1007.5 0.0
23/01:00am 25.0 21.3 12.6 46 7.3 SSE 24 35 13 19 1010.8 1007.6 0.0
23/12:30am 25.3 21.3 12.9 46 7.4 SSE 26 37 14 20 1010.9 1007.7 0.0
23/12:00am 25.9 21.8 12.7 44 7.8 SSE 26 41 14 22 1010.9 1007.7 0.0
 
Date/Time
CST
Temp
°C
App
Temp
°C
Dew
Point
°C
Rel
Hum
%
Delta-T
°C
Wind Press
QNH
hPa
Press
MSL
hPa
Rain since
9am
mm
Dir  Spd
km/h
Gust
km/h
Spd
kts
Gust
kts
22/11:32pm 26.6 22.0 12.3 41 8.4 SSE 28 46 15 25 1010.6 1007.4 0.0
22/11:30pm 26.7 21.6 12.0 40 8.7 SSE 30 46 16 25 1010.5 1007.3 0.0
22/11:18pm 27.0 21.5 11.9 39 8.9 SSE 32 50 17 27 1010.4 1007.1 0.0
22/11:00pm 27.3 22.1 11.7 37 9.1 SSE 30 44 16 24 1010.2 1007.0 0.0
22/10:30pm 28.2 23.4 11.7 36 9.7 SSE 28 39 15 21 1009.9 1006.7 0.0
22/10:04pm 28.7 23.9 11.7 35 10.0 SSE 28 46 15 25 1009.5 1006.3 0.0
22/10:00pm 28.8 24.4 11.8 35 10.0 SSE 26 39 14 21 1009.5 1006.3 0.0
22/09:30pm 29.4 24.3 11.9 34 10.4 SSE 30 43 16 23 1009.1 1005.9 0.0
22/09:00pm 30.3 25.2 11.8 32 11.0 S 30 39 16 21 1008.5 1005.2 0.0
22/08:30pm 31.2 27.5 9.4 26 12.6 S 19 28 10 15 1007.8 1004.6 0.0
22/08:00pm 31.7 28.8 8.0 23 13.4 S 13 19 7 10 1007.2 1004.0 0.0
22/07:30pm 33.4 29.6 7.4 20 14.7 SSW 17 22 9 12 1006.7 1003.4 0.0
22/07:00pm 34.9 30.4 6.2 17 16.0 SSW 19 26 10 14 1006.4 1003.1 0.0
22/06:30pm 36.2 31.4 5.5 15 17.1 SSW 20 28 11 15 1006.1 1002.8 0.0
22/06:00pm 36.3 31.1 5.5 15 17.1 SSW 22 28 12 15 1005.7 1002.5 0.0
22/05:30pm 37.5 33.5 6.5 15 17.6 SW 17 30 9 16 1005.5 1002.3 0.0
22/05:00pm 38.0 34.2 5.9 14 18.0 SSE 15 26 8 14 1005.5 1002.3 0.0
22/04:30pm 37.1 34.7 5.2 14 17.7 WNW 7 13 4 7 1005.6 1002.4 0.0
22/04:00pm 38.7 35.2 5.4 13 18.6 WSW 13 20 7 11 1005.9 1002.7 0.0
22/03:30pm 37.1 34.1 4.1 13 18.0 WNW 9 20 5 11 1006.2 1002.9 0.0
22/03:00pm 38.5 35.1 4.1 12 18.9 SSE 11 24 6 13 1006.6 1003.3 0.0
22/02:30pm 36.5 33.0 3.7 13 17.7 ESE 11 17 6 9 1007.0 1003.8 0.0
22/02:00pm 37.3 34.1 5.3 14 17.8 ENE 11 22 6 12 1007.4 1004.2 0.0
22/01:30pm 36.2 32.9 4.5 14 17.3 SW 11 24 6 13 1007.7 1004.5 0.0
22/01:00pm 36.3 34.1 5.5 15 17.1 SSE 6 20 3 11 1008.4 1005.1 0.0
22/12:30pm 35.6 32.2 5.9 16 16.5 SE 13 22 7 12 1008.8 1005.6 0.0
22/12:00pm 35.7 32.3 7.7 18 16.0 E 15 22 8 12 1009.2 1006.0 0.0
22/11:30am 35.1 32.4 8.8 20 15.3 E 13 20 7 11 1009.4 1006.2 0.0
22/11:00am 34.5 31.6 9.7 22 14.5 ESE 15 26 8 14 1009.6 1006.4 0.0
22/10:30am 33.3 31.1 9.4 23 13.9 ESE 11 19 6 10 1009.9 1006.7 0.0
22/10:00am 32.2 29.7 9.7 25 13.1 SE 13 22 7 12 1010.0 1006.8 0.0
22/09:30am 31.1 28.8 10.4 28 12.1 ESE 13 20 7 11 1010.1 1006.9 0.0
22/09:00am 30.4 26.6 9.8 28 11.9 E 20 26 11 14 1010.1 1006.9 0.0
22/08:30am 29.3 25.5 9.9 30 11.2 ESE 20 28 11 15 1010.4 1007.1 0.0
22/08:00am 27.1 22.9 9.9 34 9.8 SSE 22 32 12 17 1010.7 1007.5 0.0
22/07:30am 26.8 21.9 10.1 35 9.5 SE 26 33 14 18 1010.0 1006.8 0.0
22/07:00am 25.6 20.9 9.4 36 9.1 SE 24 35 13 19 1009.7 1006.5 0.0
22/06:30am 24.9 20.6 9.2 37 8.7 SSE 22 32 12 17 1009.4 1006.2 0.0
22/06:00am 24.7 20.0 7.8 34 9.2 SSE 22 32 12 17 1009.4 1006.2 0.0
22/05:30am 24.1 18.2 5.9 31 9.5 S 26 37 14 20 1008.9 1005.7 0.0
22/05:00am 21.9 17.5 6.6 37 8.0 S 19 24 10 13 1008.6 1005.4 0.0
22/04:30am 19.0 16.5 8.4 50 5.6 S 11 13 6 7 1007.8 1004.6 0.0
22/04:00am 19.1 16.0 7.2 46 6.2 SSW 13 17 7 9 1007.6 1004.4 0.0
22/03:47am 19.1 15.9 6.9 45 6.3 SSW 13 15 7 8 1007.6 1004.4 0.0
22/03:30am 18.9 16.1 7.0 46 6.2 SSW 11 13 6 7 1007.7 1004.5 0.0
22/03:26am 18.9 16.1 7.0 46 6.1 SSW 11 13 6 7 1007.6 1004.4 0.0
22/03:00am 19.8 17.1 7.2 44 6.6 SSW 11 13 6 7 1007.5 1004.3 0.0
22/02:30am 20.2 18.2 7.2 43 6.8 SSE 7 9 4 5 1007.3 1004.1 0.0
22/02:00am 21.1 19.0 6.6 39 7.5 S 7 9 4 5 1007.4 1004.2 0.0
22/01:30am 22.6 20.0 6.0 34 8.6 SE 9 11 5 6 1007.4 1004.2 0.0
22/01:00am 23.7 20.7 6.0 32 9.2 SSE 11 13 6 7 1007.9 1004.7 0.0
22/12:30am 23.8 20.7 5.7 31 9.4 SE 11 11 6 6 1008.5 1005.2 0.0
22/12:00am 22.7 20.3 6.9 36 8.4 SSE 9 11 5 6 1008.8 1005.6 0.0
 
Date/Time
CST
Temp
°C
App
Temp
°C
Dew
Point
°C
Rel
Hum
%
Delta-T
°C
Wind Press
QNH
hPa
Press
MSL
hPa
Rain since
9am
mm
Dir  Spd
km/h
Gust
km/h
Spd
kts
Gust
kts
21/11:30pm 23.1 20.7 6.8 35 8.6 SSE 9 11 5 6 1008.9 1005.7 0.0
21/11:00pm 24.8 22.2 6.1 30 9.8 SE 9 11 5 6 1008.9 1005.7 0.0
21/10:30pm 22.9 20.6 7.4 37 8.3 SE 9 11 5 6 1009.0 1005.8 0.0
21/10:00pm 25.0 22.5 4.7 27 10.4 S 7 9 4 5 1009.2 1006.0 0.0
21/09:30pm 24.8 22.3 4.5 27 10.4 S 7 9 4 5 1009.2 1006.0 0.0
21/09:00pm 26.1 23.5 4.0 24 11.3 SSE 7 9 4 5 1008.9 1005.7 0.0
21/08:30pm 27.7 24.4 2.7 20 12.6 SE 9 11 5 6 1008.8 1005.6 0.0
21/08:00pm 29.4 25.6 1.8 17 13.9 SSE 11 13 6 7 1008.6 1005.4 0.0
21/07:30pm 31.8 27.2 -1.1 12 16.0 S 13 17 7 9 1008.3 1005.0 0.0
21/07:00pm 34.3 28.9 -1.7 10 17.6 S 17 26 9 14 1007.8 1004.6 0.0
21/06:30pm 35.6 29.1 0.6 11 17.9 SSE 24 32 13 17 1007.5 1004.3 0.0
21/06:00pm 36.3 30.1 -0.2 10 18.6 SSW 22 37 12 20 1007.2 1004.0 0.0
21/05:30pm 36.5 30.0 0.0 10 18.6 S 24 41 13 22 1007.2 1004.0 0.0
21/05:00pm 36.9 30.2 -1.1 9 19.1 S 24 41 13 22 1007.1 1003.9 0.0
21/04:38pm 37.4 30.0 -0.8 9 19.3 SSW 28 46 15 25 1007.1 1003.9 0.0
21/04:30pm 37.1 29.7 -1.0 9 19.2 S 28 44 15 24 1007.1 1003.9 0.0
21/04:00pm 36.7 29.8 0.1 10 18.7 SSW 26 39 14 21 1007.3 1004.1 0.0
21/03:34pm 37.7 30.5 0.9 10 19.1 SSW 28 46 15 25 1007.4 1004.2 0.0
21/03:30pm 37.4 30.6 0.7 10 19.1 SSW 26 41 14 22 1007.3 1004.1 0.0
21/03:00pm 36.8 30.5 1.5 11 18.5 SSW 24 37 13 20 1007.6 1004.4 0.0
21/02:30pm 36.7 31.1 1.5 11 18.4 SSW 20 32 11 17 1008.0 1004.8 0.0
21/02:00pm 36.2 29.6 -0.2 10 18.5 S 24 41 13 22 1008.5 1005.2 0.0
21/01:30pm 36.6 31.6 3.7 13 17.8 S 19 50 10 27 1008.9 1005.7 0.0
21/01:26pm 36.0 31.1 2.1 12 17.8 SSE 17 50 9 27 1008.9 1005.7 0.0
21/01:00pm 34.9 30.1 2.4 13 17.0 S 17 33 9 18 1009.4 1006.2 0.0
21/12:30pm 34.6 30.7 3.2 14 16.7 S 13 26 7 14 1009.8 1006.6 0.0
21/12:00pm 34.4 30.8 5.0 16 16.0 SSE 13 19 7 10 1010.4 1007.1 0.0
21/11:30am 33.4 29.4 5.0 17 15.4 SSE 15 26 8 14 1010.9 1007.7 0.0
21/11:00am 32.8 30.0 6.9 20 14.4 WSW 11 20 6 11 1011.4 1008.2 0.0
21/10:30am 32.9 30.3 7.7 21 14.2 SSE 11 24 6 13 1011.5 1008.3 0.0
21/10:00am 31.3 28.9 10.1 27 12.3 SE 13 20 7 11 1011.7 1008.5 0.0
21/09:30am 30.1 27.6 11.1 31 11.2 SE 15 20 8 11 1011.8 1008.6 0.0
21/09:00am 29.1 27.3 12.1 35 10.1 SSE 13 22 7 12 1011.8 1008.6 0.0
21/08:30am 27.6 24.9 11.6 37 9.4 SE 17 24 9 13 1011.7 1008.5 0.0
21/08:00am 26.6 25.1 11.9 40 8.6 SSE 11 19 6 10 1011.5 1008.3 0.0
21/07:30am 24.4 21.9 12.4 47 7.0 S 17 22 9 12 1011.2 1008.0 0.0
21/07:00am 22.7 20.5 12.0 50 6.2 S 15 20 8 11 1010.8 1007.6 0.0
21/06:30am 19.6 17.7 11.9 61 4.4 SSW 13 19 7 10 1010.5 1007.3 0.0
21/06:00am 18.1 16.5 11.4 65 3.7 SSW 11 15 6 8 1010.1 1006.9 0.0
21/05:30am 18.8 16.7 11.1 61 4.3 SSW 13 15 7 8 1009.9 1006.7 0.0
21/05:00am 18.9 17.6 11.2 61 4.3 SSW 9 11 5 6 1009.8 1006.6 0.0
21/04:30am 19.8 18.0 10.8 56 5.0 S 11 15 6 8 1009.5 1006.3 0.0
21/04:00am 20.6 18.4 10.7 53 5.5 SSW 13 15 7 8 1009.5 1006.3 0.0
21/03:30am 21.4 18.9 11.1 52 5.8 SSW 15 19 8 10 1009.3 1006.1 0.0
21/03:00am 21.5 18.7 11.2 52 5.8 S 17 20 9 11 1009.5 1006.3 0.0
21/02:30am 22.7 20.1 10.8 47 6.7 S 15 19 8 10 1009.3 1006.1 0.0
21/02:00am 21.4 19.1 10.6 50 6.0 S 13 17 7 9 1009.4 1006.2 0.0
21/01:30am 20.7 19.3 10.8 53 5.6 SSE 9 13 5 7 1009.5 1006.3 0.0
21/01:00am 22.3 20.6 9.8 45 6.9 S 9 11 5 6 1009.7 1006.5 0.0
21/12:30am 22.3 20.2 9.8 45 6.9 SSW 11 13 6 7 1010.2 1007.0 0.0
21/12:00am 24.0 21.3 8.8 38 8.4 S 13 17 7 9 1010.5 1007.3 0.0
 
Date/Time
CST
Temp
°C
App
Temp
°C
Dew
Point
°C
Rel
Hum
%
Delta-T
°C
Wind Press
QNH
hPa
Press
MSL
hPa
Rain since
9am
mm
Dir  Spd
km/h
Gust
km/h
Spd
kts
Gust
kts
20/11:30pm 24.7 21.5 8.6 36 8.9 S 15 20 8 11 1010.5 1007.3 0.0
20/11:00pm 23.9 21.5 8.7 38 8.3 S 11 13 6 7 1010.5 1007.3 0.0
20/10:30pm 23.9 21.0 8.3 37 8.5 S 13 15 7 8 1010.4 1007.1 0.0
20/10:00pm 25.0 21.9 7.2 32 9.6 S 13 15 7 8 1010.4 1007.1 0.0
20/09:30pm 26.2 22.9 6.3 28 10.6 S 13 17 7 9 1010.0 1006.8 0.0
20/09:00pm 27.6 24.6 5.8 25 11.6 SSW 11 13 6 7 1009.8 1006.6 0.0
20/08:30pm 28.8 25.1 4.3 21 12.8 SSW 13 17 7 9 1009.4 1006.2 0.0
20/08:00pm 31.5 27.5 2.7 16 14.9 SSW 13 19 7 10 1009.0 1005.8 0.0
20/07:30pm 33.0 28.3 0.9 13 16.3 SW 15 20 8 11 1008.5 1005.2 0.0
20/07:00pm 34.6 28.6 -1.4 10 17.7 SSW 20 32 11 17 1008.0 1004.8 0.0
20/06:30pm 35.9 28.7 -1.9 9 18.7 SSW 26 44 14 24 1007.5 1004.3 0.0
20/06:00pm 36.9 29.6 0.3 10 18.8 SW 28 37 15 20 1007.2 1004.0 0.0
20/05:48pm 36.9 30.8 0.3 10 18.8 SW 22 50 12 27 1006.9 1003.7 0.0
20/05:30pm 37.1 31.4 0.4 10 18.9 WSW 20 33 11 18 1007.0 1003.8 0.0
20/05:00pm 37.7 30.7 2.2 11 18.8 SW 28 41 15 22 1007.0 1003.8 0.0
20/04:30pm 37.5 30.1 2.1 11 18.8 WSW 30 43 16 23 1007.1 1003.9 0.0
20/04:00pm 36.9 32.4 7.0 16 17.0 W 20 32 11 17 1007.3 1004.1 0.0
20/03:30pm 37.1 31.5 7.1 16 17.1 WSW 26 39 14 21 1007.7 1004.5 0.0
20/03:00pm 36.9 31.1 7.8 17 16.8 WSW 28 43 15 23 1008.0 1004.8 0.0
20/02:30pm 37.1 32.1 8.0 17 16.8 WSW 24 37 13 20 1008.7 1005.5 0.0
20/02:00pm 36.1 32.6 11.0 22 15.1 SW 20 35 11 19 1009.1 1005.9 0.0
20/01:30pm 35.4 31.8 9.7 21 15.1 W 19 32 10 17 1009.6 1006.4 0.0
20/01:00pm 35.4 32.0 10.4 22 14.9 WNW 19 28 10 15 1009.9 1006.7 0.0
20/12:30pm 34.5 32.4 11.0 24 14.1 WNW 13 22 7 12 1010.6 1007.4 0.0
20/12:00pm 32.9 31.8 12.0 28 12.6 NNE 9 24 5 13 1011.1 1007.9 0.0
20/11:30am 31.7 31.6 13.9 34 11.0 N 7 13 4 7 1011.8 1008.6 0.0
20/11:00am 31.5 31.0 15.0 36 10.3 NNE 11 17 6 9 1012.2 1009.1 0.0
20/10:30am 29.9 30.2 16.0 43 8.8 NNE 9 17 5 9 1012.5 1009.3 0.0
20/10:00am 27.5 28.6 16.5 51 7.0 SE 6 11 3 6 1012.8 1009.6 0.0
20/09:30am 26.1 27.3 16.9 57 5.8 NE 6 11 3 6 1012.9 1009.7 0.0
20/09:00am 24.3 25.8 18.0 68 4.0 ESE 7 11 4 6 1013.3 1010.1 0.0
20/08:30am 22.9 24.3 18.7 77 2.7 S 9 13 5 7 1013.3 1010.1 0.0
20/08:00am 21.6 22.7 18.8 84 1.8 SSE 11 15 6 8 1013.3 1010.1 0.0
20/07:30am 21.5 22.6 18.9 85 1.7 SSE 11 15 6 8 1013.1 1009.9 0.0
20/07:00am 21.4 23.2 19.5 89 1.2 SSE 9 11 5 6 1013.0 1009.8 0.0
20/06:30am 20.1 22.1 19.9 99 0.1 SSE 9 11 5 6 1013.0 1009.8 0.0
20/06:00am 20.0 22.0 20.0 100 0.0 SSE 9 13 5 7 1012.6 1009.4 0.0
20/05:30am 20.3 22.3 20.0 98 0.2 SSE 9 11 5 6 1012.0 1008.8 0.0
20/05:00am 21.0 23.4 20.0 94 0.7 SE 7 9 4 5 1011.7 1008.5 0.0
20/04:30am 21.7 23.2 19.8 89 1.2 ESE 11 15 6 8 1011.3 1008.1 0.0
20/04:00am 22.4 24.3 19.8 85 1.7 ESE 9 13 5 7 1011.4 1008.2 0.0
20/03:30am 22.7 24.1 19.5 82 2.1 E 11 13 6 7 1011.3 1008.1 0.0
20/03:00am 22.8 25.8 19.2 80 2.3 SSW 2 7 1 4 1010.6 1007.4 0.0
20/02:30am 24.1 25.4 18.5 71 3.6 ENE 9 9 5 5 1010.6 1007.4 0.0

Other Formats:

Comma delimited format used in spreadsheet applications
http://www.bom.gov.au/fwo/IDD60801/IDD60801.94462.axf

JavaScript Object Notation format (JSON) in row-major order
http://www.bom.gov.au/fwo/IDD60801/IDD60801.94462.json